Time;durP1;ratioP1;P1;durP2;ratioP2;P2;SDS_P1;SDS_P2;PMS_P1;PMS_P2;Temp;Humidity;BMP_temperature;BMP_pressure;BME280_temperature;BME280_humidity;BME280_pressure;Samples;Min_cycle;Max_cycle;Signal;HPM_P1;HPM_P2
2022/05/20 00:00:57;;;;;;;;;1.25;0.50;;;;;;;;5056757;28;45368;-66
2022/05/20 00:03:23;;;;;;;;;2.25;2.25;;;;;;;;5062613;28;45253;-66
2022/05/20 00:05:48;;;;;;;;;3.50;3.50;;;;;;;;5066681;28;45520;-66
2022/05/20 00:08:13;;;;;;;;;4.00;3.00;;;;;;;;5066794;28;46146;-66
2022/05/20 00:10:39;;;;;;;;;3.00;3.00;;;;;;;;5060279;27;45334;-66
2022/05/20 00:13:04;;;;;;;;;2.00;1.00;;;;;;;;5064118;28;45403;-66
2022/05/20 00:15:30;;;;;;;;;0.50;0.00;;;;;;;;5062523;28;45629;-66
2022/05/20 00:17:55;;;;;;;;;3.00;2.00;;;;;;;;5059926;27;46476;-66
2022/05/20 00:20:22;;;;;;;;;1.00;1.00;;;;;;;;5059021;28;45477;-66
2022/05/20 00:22:47;;;;;;;;;4.00;2.00;;;;;;;;5060272;27;45431;-66
2022/05/20 00:27:57;;;;;;;;;4.00;3.00;;;;;;;;5066437;28;45490;-66
2022/05/20 00:30:22;;;;;;;;;3.00;2.00;;;;;;;;5062008;28;45401;-66
2022/05/20 00:32:48;;;;;;;;;2.00;2.00;;;;;;;;5060226;28;45894;-66
2022/05/20 00:35:13;;;;;;;;;3.75;3.75;;;;;;;;5060106;28;45395;-66
2022/05/20 00:37:40;;;;;;;;;1.00;1.00;;;;;;;;5059798;28;45531;-66
2022/05/20 00:40:07;;;;;;;;;1.75;1.50;;;;;;;;5039915;28;45501;-66
2022/05/20 00:42:34;;;;;;;;;2.00;2.00;;;;;;;;5061829;28;45312;-67
2022/05/20 00:44:59;;;;;;;;;1.00;1.00;;;;;;;;5060066;28;45359;-66
2022/05/20 00:47:24;;;;;;;;;1.00;1.00;;;;;;;;5059544;27;47146;-66
2022/05/20 00:49:52;;;;;;;;;1.00;1.00;;;;;;;;5059854;28;45304;-66
2022/05/20 00:52:19;;;;;;;;;2.25;2.00;;;;;;;;5056384;28;45424;-66
2022/05/20 00:54:46;;;;;;;;;3.25;3.00;;;;;;;;5059146;28;45495;-67
2022/05/20 00:57:18;;;;;;;;;3.25;3.00;;;;;;;;5060542;28;46193;-67
2022/05/20 00:59:46;;;;;;;;;3.00;3.00;;;;;;;;5059479;28;45428;-66
2022/05/20 01:02:15;;;;;;;;;1.00;1.00;;;;;;;;5052746;28;45487;-67
2022/05/20 01:04:40;;;;;;;;;0.00;0.00;;;;;;;;5052745;28;45723;-67
2022/05/20 01:07:07;;;;;;;;;1.50;1.00;;;;;;;;5056714;28;46293;-67
2022/05/20 01:09:34;;;;;;;;;1.75;1.75;;;;;;;;5072533;28;45387;-66
2022/05/20 01:12:00;;;;;;;;;2.25;2.25;;;;;;;;5059755;28;45578;-66
2022/05/20 01:14:25;;;;;;;;;2.00;2.00;;;;;;;;5059372;27;45510;-67
2022/05/20 01:16:52;;;;;;;;;1.25;1.25;;;;;;;;5059255;27;45479;-67
2022/05/20 01:19:37;;;;;;;;;1.00;1.00;;;;;;;;5056272;28;45333;-67
2022/05/20 01:22:03;;;;;;;;;1.25;1.25;;;;;;;;5045459;28;45171;-66
2022/05/20 01:24:29;;;;;;;;;2.00;1.75;;;;;;;;5060771;28;45321;-66
2022/05/20 01:26:54;;;;;;;;;2.75;2.75;;;;;;;;5058794;27;47247;-67
2022/05/20 01:29:19;;;;;;;;;2.25;2.25;;;;;;;;5058975;28;45340;-67
2022/05/20 01:31:44;;;;;;;;;4.25;4.25;;;;;;;;5059068;28;45347;-66
2022/05/20 01:34:10;;;;;;;;;5.00;3.25;;;;;;;;5065055;28;45496;-66
2022/05/20 01:36:35;;;;;;;;;5.00;4.00;;;;;;;;5060816;28;45536;-66
2022/05/20 01:39:00;;;;;;;;;3.25;3.25;;;;;;;;5058674;28;45494;-66
2022/05/20 01:41:35;;;;;;;;;7.25;6.75;;;;;;;;5059068;28;45341;-66
2022/05/20 01:44:03;;;;;;;;;2.00;2.00;;;;;;;;5059249;28;45545;-66
2022/05/20 01:46:46;;;;;;;;;3.25;2.25;;;;;;;;5057426;28;45411;-66
2022/05/20 01:49:12;;;;;;;;;3.25;2.25;;;;;;;;5049635;28;45409;-67
2022/05/20 01:51:43;;;;;;;;;2.25;2.00;;;;;;;;5060109;28;45482;-66
2022/05/20 01:54:12;;;;;;;;;4.00;2.00;;;;;;;;5057212;28;45461;-66
2022/05/20 01:56:41;;;;;;;;;4.00;3.00;;;;;;;;5058502;28;46115;-66
2022/05/20 01:59:15;;;;;;;;;1.00;1.00;;;;;;;;5058482;28;45426;-66
2022/05/20 02:01:47;;;;;;;;;1.50;1.50;;;;;;;;5066249;28;45423;-66
2022/05/20 02:04:16;;;;;;;;;1.00;1.00;;;;;;;;5053982;28;45522;-66
2022/05/20 02:06:45;;;;;;;;;3.50;2.00;;;;;;;;5058620;28;45607;-66
2022/05/20 02:09:12;;;;;;;;;5.00;2.50;;;;;;;;5059434;28;45403;-66
2022/05/20 02:11:43;;;;;;;;;2.00;1.25;;;;;;;;5058606;28;45289;-66
2022/05/20 02:14:20;;;;;;;;;0.50;0.50;;;;;;;;5058352;28;45450;-66
2022/05/20 02:17:08;;;;;;;;;1.25;1.00;;;;;;;;5058962;28;45990;-66
2022/05/20 02:19:37;;;;;;;;;1.00;1.00;;;;;;;;5057723;28;45367;-66
2022/05/20 02:22:05;;;;;;;;;1.75;1.75;;;;;;;;5035869;28;45767;-66
2022/05/20 02:24:32;;;;;;;;;0.00;0.00;;;;;;;;5060349;28;45546;-66
2022/05/20 02:27:01;;;;;;;;;3.25;1.25;;;;;;;;5058209;28;47184;-66
2022/05/20 02:29:34;;;;;;;;;1.00;1.00;;;;;;;;5062674;27;45561;-66
2022/05/20 02:32:11;;;;;;;;;0.25;0.25;;;;;;;;5058293;27;45483;-66
2022/05/20 02:34:37;;;;;;;;;0.75;0.75;;;;;;;;5058026;28;45210;-66
2022/05/20 02:37:17;;;;;;;;;3.00;2.00;;;;;;;;5053370;28;46017;-66
2022/05/20 02:39:42;;;;;;;;;3.00;1.00;;;;;;;;5068470;28;45485;-66
2022/05/20 02:42:07;;;;;;;;;0.25;0.25;;;;;;;;5062553;28;45337;-66
2022/05/20 02:44:33;;;;;;;;;1.25;1.25;;;;;;;;5061568;28;45506;-66
2022/05/20 02:46:58;;;;;;;;;1.00;0.00;;;;;;;;5057600;28;46216;-66
2022/05/20 02:49:23;;;;;;;;;2.50;0.50;;;;;;;;5055960;28;45598;-66
2022/05/20 02:51:48;;;;;;;;;1.50;1.50;;;;;;;;5055780;28;45345;-66
2022/05/20 02:54:13;;;;;;;;;1.00;1.00;;;;;;;;5059674;28;45307;-66
2022/05/20 02:56:39;;;;;;;;;3.75;1.50;;;;;;;;5059747;28;46032;-66
2022/05/20 03:04:31;;;;;;;;;1.00;1.00;;;;;;;;5057003;28;45506;-66
2022/05/20 03:06:57;;;;;;;;;1.00;1.00;;;;;;;;5054111;28;45414;-66
2022/05/20 03:09:24;;;;;;;;;1.00;1.00;;;;;;;;5060372;28;45386;-67
2022/05/20 03:11:50;;;;;;;;;1.25;1.00;;;;;;;;5058318;28;45387;-66
2022/05/20 03:14:16;;;;;;;;;2.50;2.00;;;;;;;;5057642;28;45322;-66
2022/05/20 03:16:42;;;;;;;;;2.00;2.00;;;;;;;;5064056;28;47951;-67
2022/05/20 03:19:07;;;;;;;;;1.00;1.00;;;;;;;;5059956;28;45500;-66
2022/05/20 03:21:34;;;;;;;;;0.75;0.75;;;;;;;;5065856;27;45264;-66
2022/05/20 03:23:59;;;;;;;;;1.75;1.00;;;;;;;;5064363;28;45317;-67
2022/05/20 03:26:25;;;;;;;;;1.50;1.00;;;;;;;;5063925;28;47141;-66
2022/05/20 03:28:51;;;;;;;;;3.25;3.25;;;;;;;;5064036;28;45332;-67
2022/05/20 03:31:16;;;;;;;;;2.00;2.00;;;;;;;;5061148;28;45402;-66
2022/05/20 03:33:42;;;;;;;;;1.50;1.00;;;;;;;;5064345;28;45189;-66
2022/05/20 03:36:08;;;;;;;;;2.00;2.00;;;;;;;;5064600;28;46331;-66
2022/05/20 03:38:34;;;;;;;;;1.50;1.50;;;;;;;;5063525;28;45478;-66
2022/05/20 03:40:59;;;;;;;;;1.75;1.75;;;;;;;;5065528;28;46270;-66
2022/05/20 03:43:24;;;;;;;;;2.50;2.50;;;;;;;;5059875;28;45489;-67
2022/05/20 03:45:54;;;;;;;;;2.00;1.00;;;;;;;;5061648;28;47157;-66
2022/05/20 03:48:19;;;;;;;;;2.50;1.50;;;;;;;;5063625;27;45351;-66
2022/05/20 03:50:44;;;;;;;;;5.50;5.00;;;;;;;;5063700;27;45499;-66
2022/05/20 03:53:09;;;;;;;;;1.75;1.75;;;;;;;;5063747;28;45260;-66
2022/05/20 03:55:35;;;;;;;;;2.25;2.00;;;;;;;;5063152;28;47302;-66
2022/05/20 03:58:00;;;;;;;;;5.75;4.00;;;;;;;;5065266;28;45415;-66
2022/05/20 04:00:26;;;;;;;;;3.00;3.00;;;;;;;;5077261;27;45377;-66
2022/05/20 04:02:51;;;;;;;;;2.25;2.25;;;;;;;;5055893;27;45502;-66
2022/05/20 04:05:16;;;;;;;;;2.00;2.00;;;;;;;;5056126;28;46043;-66
2022/05/20 04:07:42;;;;;;;;;0.00;0.00;;;;;;;;5059478;28;45400;-66
2022/05/20 04:10:08;;;;;;;;;2.75;2.75;;;;;;;;5054149;28;45597;-66
2022/05/20 04:12:34;;;;;;;;;6.00;4.25;;;;;;;;5058222;28;46925;-66
2022/05/20 04:15:00;;;;;;;;;6.00;5.00;;;;;;;;5047626;28;46259;-66
2022/05/20 04:17:26;;;;;;;;;6.25;5.00;;;;;;;;5044970;28;45784;-68
2022/05/20 04:19:51;;;;;;;;;9.00;7.25;;;;;;;;5045458;28;45376;-67
2022/05/20 04:22:19;;;;;;;;;3.00;2.75;;;;;;;;5043165;28;45665;-67
2022/05/20 04:24:44;;;;;;;;;3.50;3.50;;;;;;;;5043189;28;47064;-66
2022/05/20 04:27:09;;;;;;;;;4.00;4.00;;;;;;;;5054711;28;46019;-67
2022/05/20 04:29:35;;;;;;;;;5.25;5.25;;;;;;;;5051652;28;45559;-67
2022/05/20 04:32:00;;;;;;;;;14.00;12.25;;;;;;;;5050437;28;45296;-67
2022/05/20 04:34:26;;;;;;;;;9.25;9.25;;;;;;;;5053419;28;47048;-67
2022/05/20 04:36:51;;;;;;;;;8.00;6.50;;;;;;;;5053391;28;45281;-68
2022/05/20 04:39:17;;;;;;;;;6.75;6.50;;;;;;;;5062107;28;45760;-68
2022/05/20 04:47:22;;;;;;;;;5.25;4.25;;;;;;;;5061190;28;45576;-67
2022/05/20 04:49:48;;;;;;;;;7.25;5.75;;;;;;;;5063021;27;45415;-66
2022/05/20 04:52:14;;;;;;;;;5.25;5.00;;;;;;;;5063074;28;45514;-67
2022/05/20 04:54:52;;;;;;;;;3.75;2.75;;;;;;;;5044885;28;46902;-68
2022/05/20 04:57:27;;;;;;;;;7.25;4.00;;;;;;;;5063050;28;45470;-67
2022/05/20 04:59:55;;;;;;;;;5.75;3.00;;;;;;;;5058550;27;45782;-67
2022/05/20 05:02:21;;;;;;;;;4.75;3.50;;;;;;;;5062335;28;45469;-66
2022/05/20 05:04:46;;;;;;;;;5.75;5.75;;;;;;;;5063727;28;45474;-67
2022/05/20 05:07:11;;;;;;;;;5.25;5.25;;;;;;;;5056959;28;45757;-68
2022/05/20 05:09:41;;;;;;;;;8.25;5.75;;;;;;;;5053178;28;45735;-67
2022/05/20 05:12:07;;;;;;;;;6.50;5.00;;;;;;;;5050865;28;45455;-66
2022/05/20 05:14:39;;;;;;;;;8.50;7.75;;;;;;;;5041759;28;46450;-67
2022/05/20 05:17:05;;;;;;;;;8.50;6.00;;;;;;;;5048943;28;45386;-67
2022/05/20 05:19:32;;;;;;;;;18.25;16.50;;;;;;;;5057319;27;45436;-67
2022/05/20 05:21:57;;;;;;;;;15.50;12.00;;;;;;;;5054986;28;45291;-67
2022/05/20 05:24:22;;;;;;;;;10.50;8.75;;;;;;;;5060189;28;46319;-67
2022/05/20 05:26:47;;;;;;;;;7.50;7.25;;;;;;;;5058341;28;45474;-68
2022/05/20 05:29:12;;;;;;;;;7.00;6.00;;;;;;;;5058245;28;45269;-68
2022/05/20 05:31:38;;;;;;;;;4.00;4.00;;;;;;;;5057836;27;45600;-67
2022/05/20 05:34:03;;;;;;;;;5.25;4.75;;;;;;;;5054422;28;46205;-67
2022/05/20 05:36:29;;;;;;;;;7.00;6.75;;;;;;;;5061290;28;45409;-67
2022/05/20 05:38:54;;;;;;;;;9.00;7.00;;;;;;;;5058998;28;45280;-67
2022/05/20 05:41:20;;;;;;;;;4.50;4.50;;;;;;;;5058856;28;45348;-67
2022/05/20 05:43:46;;;;;;;;;7.00;6.00;;;;;;;;5059003;28;45731;-67
2022/05/20 05:46:12;;;;;;;;;8.75;6.00;;;;;;;;5052651;28;45368;-68
2022/05/20 05:48:38;;;;;;;;;7.00;7.00;;;;;;;;5060441;27;45450;-67
2022/05/20 05:51:03;;;;;;;;;6.25;6.25;;;;;;;;5058758;28;45382;-67
2022/05/20 05:53:28;;;;;;;;;5.50;5.50;;;;;;;;5058131;27;47162;-67
2022/05/20 05:55:55;;;;;;;;;5.25;5.25;;;;;;;;5058396;28;47184;-67
2022/05/20 05:58:23;;;;;;;;;10.25;7.00;;;;;;;;5056116;28;45433;-67
2022/05/20 06:00:48;;;;;;;;;15.50;12.50;;;;;;;;5055744;28;45336;-66
2022/05/20 06:03:15;;;;;;;;;8.50;8.25;;;;;;;;5058961;28;45397;-67
2022/05/20 06:05:41;;;;;;;;;8.00;5.50;;;;;;;;5057477;28;45663;-67
2022/05/20 06:08:06;;;;;;;;;10.75;9.00;;;;;;;;5057567;28;45500;-67
2022/05/20 06:10:32;;;;;;;;;8.25;6.50;;;;;;;;5056713;28;45458;-67
2022/05/20 06:12:57;;;;;;;;;5.00;5.00;;;;;;;;5053575;27;46488;-68
2022/05/20 06:15:22;;;;;;;;;6.00;6.00;;;;;;;;5059179;27;45645;-68
2022/05/20 06:17:49;;;;;;;;;7.50;6.00;;;;;;;;5057198;28;45408;-67
2022/05/20 06:20:14;;;;;;;;;8.00;6.25;;;;;;;;5057475;27;45354;-68
2022/05/20 06:22:40;;;;;;;;;9.25;7.00;;;;;;;;5057263;27;45472;-67
2022/05/20 06:25:05;;;;;;;;;10.00;9.00;;;;;;;;5036695;28;45403;-67
2022/05/20 06:27:31;;;;;;;;;11.00;9.25;;;;;;;;5059123;28;45353;-67
2022/05/20 06:29:56;;;;;;;;;10.75;8.00;;;;;;;;5056853;28;45550;-67
2022/05/20 06:32:21;;;;;;;;;10.00;10.00;;;;;;;;5057029;28;45401;-67
2022/05/20 06:40:16;;;;;;;;;9.50;8.00;;;;;;;;5038348;28;45490;-66
2022/05/20 06:42:42;;;;;;;;;15.75;11.75;;;;;;;;5056119;28;46357;-68
2022/05/20 06:45:08;;;;;;;;;15.75;12.75;;;;;;;;5057454;28;45266;-66
2022/05/20 06:47:34;;;;;;;;;17.00;15.00;;;;;;;;5056477;28;45308;-67
2022/05/20 06:49:59;;;;;;;;;12.25;11.00;;;;;;;;5055917;28;45278;-68
2022/05/20 06:52:24;;;;;;;;;9.00;8.00;;;;;;;;5054625;28;45870;-68
2022/05/20 06:54:49;;;;;;;;;10.75;10.00;;;;;;;;5054431;28;45280;-69
2022/05/20 06:57:18;;;;;;;;;18.00;16.00;;;;;;;;5057852;28;45358;-68
2022/05/20 06:59:43;;;;;;;;;9.25;8.25;;;;;;;;5056645;28;45477;-68
2022/05/20 07:02:08;;;;;;;;;8.75;7.00;;;;;;;;5056674;28;45355;-68
2022/05/20 07:04:33;;;;;;;;;11.50;11.50;;;;;;;;5055509;28;45510;-67
2022/05/20 07:07:00;;;;;;;;;9.25;8.75;;;;;;;;5053049;28;45510;-68
2022/05/20 07:09:25;;;;;;;;;10.00;10.00;;;;;;;;5058926;28;45538;-68
2022/05/20 07:11:52;;;;;;;;;8.75;8.75;;;;;;;;5056072;28;46030;-67
2022/05/20 07:14:17;;;;;;;;;11.75;10.50;;;;;;;;5056546;28;45366;-67
2022/05/20 07:16:43;;;;;;;;;11.75;9.25;;;;;;;;5056426;28;45364;-68
2022/05/20 07:19:09;;;;;;;;;12.00;10.25;;;;;;;;5052127;28;45445;-67
2022/05/20 07:21:34;;;;;;;;;11.00;9.00;;;;;;;;5058231;28;46017;-67
2022/05/20 07:24:01;;;;;;;;;13.50;11.00;;;;;;;;5056121;28;45404;-67
2022/05/20 07:26:26;;;;;;;;;10.00;10.00;;;;;;;;5055872;28;45345;-67
2022/05/20 07:28:52;;;;;;;;;11.50;11.25;;;;;;;;5056089;27;45432;-68
2022/05/20 07:31:17;;;;;;;;;9.50;8.00;;;;;;;;5053174;28;46251;-67
2022/05/20 07:33:43;;;;;;;;;6.00;6.00;;;;;;;;5056369;28;45407;-68
2022/05/20 07:36:08;;;;;;;;;9.50;9.50;;;;;;;;5057283;28;45279;-67
2022/05/20 07:38:34;;;;;;;;;10.00;10.00;;;;;;;;5056235;28;45463;-68
2022/05/20 07:41:00;;;;;;;;;11.50;9.75;;;;;;;;5055454;27;46954;-68
2022/05/20 07:43:25;;;;;;;;;10.50;10.50;;;;;;;;5054172;28;45433;-67
2022/05/20 07:45:51;;;;;;;;;7.25;7.25;;;;;;;;5054082;28;45431;-68
2022/05/20 07:48:17;;;;;;;;;9.00;9.00;;;;;;;;5057525;28;45328;-67
2022/05/20 07:50:45;;;;;;;;;13.25;11.50;;;;;;;;5056083;27;45285;-67
2022/05/20 07:53:20;;;;;;;;;10.50;9.50;;;;;;;;5055637;28;45559;-67
2022/05/20 07:55:48;;;;;;;;;11.75;11.00;;;;;;;;5037257;28;45409;-67
2022/05/20 07:58:15;;;;;;;;;15.50;12.25;;;;;;;;5051876;28;45446;-67
2022/05/20 08:00:40;;;;;;;;;10.75;10.75;;;;;;;;5056393;28;47193;-67
2022/05/20 08:03:07;;;;;;;;;11.50;10.75;;;;;;;;5058136;28;45434;-67
2022/05/20 08:05:34;;;;;;;;;18.50;17.25;;;;;;;;5059402;28;45300;-66
2022/05/20 08:08:01;;;;;;;;;21.50;15.25;;;;;;;;5059149;27;45394;-67
2022/05/20 08:10:28;;;;;;;;;19.50;15.75;;;;;;;;5056970;28;46360;-68
2022/05/20 08:12:53;;;;;;;;;13.25;10.75;;;;;;;;5056553;28;45429;-67
2022/05/20 08:15:19;;;;;;;;;23.00;22.00;;;;;;;;5061598;28;45465;-67
2022/05/20 08:17:44;;;;;;;;;18.00;14.75;;;;;;;;5058954;28;45499;-68
2022/05/20 08:20:17;;;;;;;;;18.50;14.75;;;;;;;;5058953;28;45432;-67
2022/05/20 08:22:42;;;;;;;;;17.75;16.25;;;;;;;;5058917;28;45441;-67
2022/05/20 08:25:07;;;;;;;;;19.00;16.00;;;;;;;;5054720;28;45427;-67
2022/05/20 08:27:33;;;;;;;;;23.75;23.25;;;;;;;;5061273;28;45561;-67
2022/05/20 08:30:04;;;;;;;;;19.50;14.50;;;;;;;;5058868;27;46086;-68
2022/05/20 08:32:29;;;;;;;;;10.00;10.00;;;;;;;;5058769;28;45323;-68
2022/05/20 08:34:56;;;;;;;;;14.75;14.25;;;;;;;;5058549;28;45285;-67
2022/05/20 08:37:21;;;;;;;;;19.25;17.00;;;;;;;;5056190;28;45344;-67
2022/05/20 08:39:46;;;;;;;;;16.00;16.00;;;;;;;;5057757;28;46361;-68
2022/05/20 08:42:13;;;;;;;;;17.00;17.00;;;;;;;;5060184;27;45508;-67
2022/05/20 08:44:39;;;;;;;;;17.00;15.50;;;;;;;;5059283;28;45468;-68
2022/05/20 08:47:19;;;;;;;;;14.75;14.25;;;;;;;;5059061;28;45349;-68
2022/05/20 08:49:44;;;;;;;;;16.25;13.50;;;;;;;;5058987;28;46534;-67
2022/05/20 08:52:10;;;;;;;;;23.00;19.00;;;;;;;;5054157;28;45376;-67
2022/05/20 08:54:35;;;;;;;;;21.75;16.50;;;;;;;;5060665;27;45384;-67
2022/05/20 08:57:19;;;;;;;;;22.50;17.75;;;;;;;;5058843;27;45593;-67
2022/05/20 08:59:44;;;;;;;;;18.25;16.25;;;;;;;;5058970;28;45466;-68
2022/05/20 09:02:09;;;;;;;;;19.50;18.25;;;;;;;;5058507;28;45574;-68
2022/05/20 09:04:34;;;;;;;;;19.75;17.50;;;;;;;;5057856;27;45351;-67
2022/05/20 09:07:10;;;;;;;;;17.50;17.50;;;;;;;;5054874;28;45332;-67
2022/05/20 09:09:52;;;;;;;;;22.75;18.75;;;;;;;;5067330;27;46352;-68
2022/05/20 09:12:37;;;;;;;;;16.50;13.25;;;;;;;;5060025;28;45452;-67
2022/05/20 09:18:00;;;;;;;;;14.75;14.75;;;;;;;;5058290;28;45434;-68
2022/05/20 09:20:26;;;;;;;;;18.50;17.00;;;;;;;;5058443;27;45517;-68
2022/05/20 09:22:56;;;;;;;;;18.00;16.75;;;;;;;;5057921;28;45581;-68
2022/05/20 09:25:26;;;;;;;;;20.75;20.50;;;;;;;;5055996;28;45238;-68
2022/05/20 09:27:56;;;;;;;;;17.25;16.50;;;;;;;;5056493;28;45492;-68
2022/05/20 09:30:25;;;;;;;;;24.75;19.50;;;;;;;;5058271;28;45390;-67
2022/05/20 09:33:00;;;;;;;;;16.75;16.75;;;;;;;;5057036;28;45510;-67
2022/05/20 09:35:30;;;;;;;;;17.50;16.25;;;;;;;;5058137;28;45454;-67
2022/05/20 09:37:55;;;;;;;;;23.75;18.25;;;;;;;;5057472;28;45407;-67
2022/05/20 09:40:33;;;;;;;;;16.25;16.25;;;;;;;;5054949;28;46200;-67
2022/05/20 09:42:58;;;;;;;;;20.75;19.50;;;;;;;;5054649;28;45348;-67
2022/05/20 09:45:24;;;;;;;;;24.75;19.25;;;;;;;;5059634;28;45381;-68
2022/05/20 09:47:51;;;;;;;;;22.00;19.75;;;;;;;;5057858;28;45416;-68
2022/05/20 09:50:16;;;;;;;;;25.75;18.25;;;;;;;;5057913;28;47046;-68
2022/05/20 09:52:53;;;;;;;;;27.00;22.00;;;;;;;;5057543;27;45460;-67
2022/05/20 09:55:34;;;;;;;;;26.50;24.25;;;;;;;;5054914;27;45404;-68
2022/05/20 09:58:15;;;;;;;;;26.50;23.50;;;;;;;;5054284;28;45217;-68
2022/05/20 10:00:44;;;;;;;;;26.75;22.00;;;;;;;;5067751;27;47143;-68
2022/05/20 10:03:12;;;;;;;;;28.50;24.00;;;;;;;;5056969;28;45376;-68
2022/05/20 10:05:56;;;;;;;;;30.00;26.25;;;;;;;;5057281;28;45475;-67
2022/05/20 10:08:30;;;;;;;;;33.50;31.50;;;;;;;;5057559;28;45522;-68
2022/05/20 10:11:01;;;;;;;;;33.50;28.75;;;;;;;;5056910;28;46178;-67
2022/05/20 10:13:27;;;;;;;;;16.00;14.25;;;;;;;;5037267;28;45386;-67
2022/05/20 10:15:58;;;;;;;;;26.50;23.00;;;;;;;;5054994;28;45427;-68
2022/05/20 10:18:32;;;;;;;;;25.00;23.25;;;;;;;;5073389;27;45385;-68
2022/05/20 10:21:07;;;;;;;;;23.25;20.75;;;;;;;;5056338;28;47198;-68
2022/05/20 10:23:36;;;;;;;;;20.50;20.50;;;;;;;;5039166;28;45712;-68
2022/05/20 10:26:27;;;;;;;;;20.50;18.50;;;;;;;;5055900;28;45512;-68
2022/05/20 10:34:57;;;;;;;;;30.00;28.50;;;;;;;;5056465;28;45431;-68
2022/05/20 10:37:39;;;;;;;;;31.75;30.00;;;;;;;;5054441;28;45408;-68
2022/05/20 10:40:13;;;;;;;;;32.00;30.75;;;;;;;;5052770;28;45355;-68
2022/05/20 10:42:56;;;;;;;;;32.75;32.25;;;;;;;;5066721;27;46891;-68
2022/05/20 10:48:34;;;;;;;;;32.50;30.25;;;;;;;;5057998;28;45317;-67
2022/05/20 10:51:05;;;;;;;;;30.75;29.75;;;;;;;;5056462;28;45391;-67
2022/05/20 10:53:31;;;;;;;;;35.00;31.50;;;;;;;;5056391;28;46139;-66
2022/05/20 10:55:59;;;;;;;;;31.50;30.00;;;;;;;;5056558;28;45404;-67
2022/05/20 10:58:43;;;;;;;;;31.50;29.75;;;;;;;;5054344;28;45518;-67
2022/05/20 11:01:14;;;;;;;;;29.75;29.50;;;;;;;;5036087;28;45459;-67
2022/05/20 11:03:58;;;;;;;;;35.00;31.75;;;;;;;;5065586;28;46383;-67
2022/05/20 11:06:23;;;;;;;;;31.00;29.50;;;;;;;;5056830;28;45565;-67
2022/05/20 11:08:57;;;;;;;;;30.25;27.50;;;;;;;;5056357;28;47760;-67
2022/05/20 11:11:25;;;;;;;;;26.75;25.75;;;;;;;;5056506;28;45507;-66
2022/05/20 11:14:00;;;;;;;;;28.50;26.00;;;;;;;;5056258;28;46026;-67
2022/05/20 11:16:38;;;;;;;;;26.50;24.00;;;;;;;;5053872;28;45301;-68
2022/05/20 11:19:21;;;;;;;;;19.75;19.75;;;;;;;;5052252;28;45300;-69
2022/05/20 11:21:49;;;;;;;;;22.00;21.25;;;;;;;;5066824;28;45415;-67
2022/05/20 11:24:33;;;;;;;;;22.75;22.75;;;;;;;;5057607;27;47480;-68
2022/05/20 11:27:07;;;;;;;;;27.50;26.50;;;;;;;;5056357;28;45323;-69
2022/05/20 11:29:52;;;;;;;;;30.25;29.25;;;;;;;;5056131;28;45486;-67
2022/05/20 11:32:37;;;;;;;;;29.75;25.50;;;;;;;;5055747;28;45334;-68
2022/05/20 11:35:21;;;;;;;;;26.75;26.75;;;;;;;;4995500;28;45464;-68
2022/05/20 11:37:49;;;;;;;;;35.25;30.50;;;;;;;;4998476;28;45439;-68
2022/05/20 11:40:14;;;;;;;;;27.00;24.25;;;;;;;;4995541;28;45602;-68
2022/05/20 11:42:42;;;;;;;;;29.75;29.75;;;;;;;;4999309;28;45510;-67
2022/05/20 11:45:22;;;;;;;;;27.25;25.00;;;;;;;;5000129;28;46485;-67
2022/05/20 11:47:59;;;;;;;;;22.50;22.25;;;;;;;;4998610;28;45528;-67
2022/05/20 11:50:51;;;;;;;;;31.75;28.25;;;;;;;;4998897;28;45544;-68
2022/05/20 11:53:30;;;;;;;;;26.75;22.75;;;;;;;;4902167;28;45852;-68
2022/05/20 11:56:07;;;;;;;;;18.75;18.75;;;;;;;;4910551;28;46175;-67
2022/05/20 11:58:39;;;;;;;;;20.75;17.00;;;;;;;;4900818;28;45601;-68
2022/05/20 12:01:06;;;;;;;;;20.25;16.75;;;;;;;;4898595;28;45456;-68
2022/05/20 12:04:06;;;;;;;;;17.50;16.00;;;;;;;;4902384;28;45512;-68
2022/05/20 12:06:19;;;;;;;;;14.00;12.25;;;;;;;;4902043;28;45954;-66
2022/05/20 12:08:45;;;;;;;;;18.75;18.75;;;;;;;;4901561;28;45518;-68
2022/05/20 12:11:25;;;;;;;;;14.25;13.00;;;;;;;;4906259;28;45389;-67
2022/05/20 12:13:58;;;;;;;;;16.25;14.25;;;;;;;;4967462;28;45492;-68
2022/05/20 12:16:23;;;;;;;;;18.25;16.00;;;;;;;;4954679;28;45508;-67
2022/05/20 12:24:38;;;;;;;;;14.75;14.25;;;;;;;;4959921;28;45493;-67
2022/05/20 12:27:09;;;;;;;;;14.25;14.25;;;;;;;;4957618;28;45526;-67
2022/05/20 12:29:34;;;;;;;;;14.25;14.00;;;;;;;;4985193;28;45476;-67
2022/05/20 12:32:20;;;;;;;;;14.50;12.25;;;;;;;;5059287;28;45550;-68
2022/05/20 12:34:53;;;;;;;;;15.00;15.00;;;;;;;;5059310;28;45481;-67
2022/05/20 12:37:57;;;;;;;;;15.25;14.00;;;;;;;;5056044;27;46212;-67
2022/05/20 12:40:28;;;;;;;;;12.00;12.00;;;;;;;;4981198;28;45504;-68
2022/05/20 12:42:56;;;;;;;;;16.75;13.75;;;;;;;;4995864;28;45493;-67
2022/05/20 12:45:23;;;;;;;;;16.75;13.00;;;;;;;;4996247;28;45495;-67
2022/05/20 12:47:48;;;;;;;;;15.25;15.25;;;;;;;;4996937;28;47451;-67
2022/05/20 12:50:16;;;;;;;;;12.75;12.50;;;;;;;;4997878;28;45483;-67
2022/05/20 12:52:46;;;;;;;;;13.75;12.50;;;;;;;;4997849;28;45484;-67
2022/05/20 12:55:35;;;;;;;;;13.25;10.25;;;;;;;;4993542;28;45377;-67
2022/05/20 12:58:01;;;;;;;;;8.50;7.00;;;;;;;;4994068;28;47136;-67
2022/05/20 13:00:28;;;;;;;;;11.00;10.00;;;;;;;;4998224;28;45459;-67
2022/05/20 13:03:12;;;;;;;;;12.00;11.50;;;;;;;;4997646;28;45298;-67
2022/05/20 13:05:50;;;;;;;;;12.00;10.50;;;;;;;;4997210;28;45354;-68
2022/05/20 13:08:18;;;;;;;;;10.00;8.50;;;;;;;;4997159;28;47030;-68
2022/05/20 13:10:44;;;;;;;;;10.75;8.00;;;;;;;;5016039;28;45382;-68
2022/05/20 13:13:09;;;;;;;;;6.75;6.75;;;;;;;;5054342;28;45749;-68
2022/05/20 13:15:40;;;;;;;;;9.00;7.00;;;;;;;;5060374;28;45412;-67
2022/05/20 13:18:10;;;;;;;;;7.00;7.00;;;;;;;;5058544;27;46301;-68
2022/05/20 13:20:36;;;;;;;;;6.00;6.00;;;;;;;;5040800;28;45521;-67
2022/05/20 13:23:03;;;;;;;;;8.00;8.00;;;;;;;;5058264;28;45380;-68
2022/05/20 13:25:29;;;;;;;;;6.25;5.50;;;;;;;;5056523;28;45396;-68
2022/05/20 13:27:54;;;;;;;;;7.00;6.00;;;;;;;;5055384;28;46269;-68
2022/05/20 13:30:21;;;;;;;;;6.00;6.00;;;;;;;;5059968;28;45229;-68
2022/05/20 13:32:46;;;;;;;;;6.75;5.75;;;;;;;;5058467;27;45368;-67
2022/05/20 13:35:12;;;;;;;;;5.00;5.00;;;;;;;;5058527;28;45429;-67
2022/05/20 13:37:43;;;;;;;;;8.25;8.25;;;;;;;;5057718;28;46070;-68
2022/05/20 13:40:25;;;;;;;;;16.25;15.50;;;;;;;;5037744;28;45423;-68
2022/05/20 13:42:52;;;;;;;;;15.25;14.50;;;;;;;;5067824;28;45367;-67
2022/05/20 13:45:19;;;;;;;;;6.00;6.00;;;;;;;;5059547;28;45638;-67
2022/05/20 13:50:29;;;;;;;;;7.75;7.75;;;;;;;;5057736;28;45252;-67
2022/05/20 13:52:57;;;;;;;;;7.00;7.00;;;;;;;;5057892;28;45286;-68
2022/05/20 13:55:27;;;;;;;;;7.25;7.25;;;;;;;;5055091;28;47750;-68
2022/05/20 13:57:53;;;;;;;;;6.50;6.00;;;;;;;;5055359;28;46093;-68
2022/05/20 14:00:18;;;;;;;;;8.00;7.25;;;;;;;;5059274;28;45375;-68
2022/05/20 14:02:49;;;;;;;;;7.00;7.00;;;;;;;;5057631;28;45400;-67
2022/05/20 14:05:17;;;;;;;;;7.00;5.75;;;;;;;;5057521;27;45442;-67
2022/05/20 14:07:47;;;;;;;;;6.00;5.00;;;;;;;;5057158;28;46171;-68
2022/05/20 14:10:15;;;;;;;;;7.75;5.25;;;;;;;;5037503;28;45355;-68
2022/05/20 14:12:44;;;;;;;;;6.50;6.50;;;;;;;;5057799;28;45401;-67
2022/05/20 14:15:15;;;;;;;;;11.75;9.75;;;;;;;;5056773;28;45499;-67
2022/05/20 14:17:42;;;;;;;;;15.50;15.50;;;;;;;;5056832;28;46702;-67
2022/05/20 14:20:11;;;;;;;;;14.00;10.50;;;;;;;;5057203;28;45489;-67
2022/05/20 14:22:38;;;;;;;;;16.00;16.00;;;;;;;;5056656;27;45621;-68
2022/05/20 14:25:14;;;;;;;;;16.50;15.50;;;;;;;;5053585;28;45563;-68
2022/05/20 14:27:41;;;;;;;;;21.50;21.50;;;;;;;;5066646;27;46132;-68
2022/05/20 14:30:17;;;;;;;;;25.50;21.75;;;;;;;;5057517;28;45510;-68
2022/05/20 14:32:42;;;;;;;;;30.25;25.25;;;;;;;;5057198;28;45513;-67
2022/05/20 14:35:07;;;;;;;;;19.75;18.75;;;;;;;;5056571;28;45364;-68
2022/05/20 14:37:33;;;;;;;;;23.25;22.25;;;;;;;;5055445;28;47163;-69
2022/05/20 14:40:08;;;;;;;;;23.75;22.25;;;;;;;;5053668;28;45348;-67
2022/05/20 14:42:34;;;;;;;;;26.25;25.25;;;;;;;;5058881;27;45280;-68
2022/05/20 14:45:01;;;;;;;;;30.50;28.25;;;;;;;;5057140;28;45462;-68
2022/05/20 14:47:28;;;;;;;;;29.75;29.00;;;;;;;;5056479;27;47212;-68
2022/05/20 14:49:56;;;;;;;;;32.00;30.25;;;;;;;;5056621;28;45524;-68
2022/05/20 14:52:24;;;;;;;;;26.75;23.75;;;;;;;;5052620;28;45394;-67
2022/05/20 14:54:50;;;;;;;;;25.75;24.25;;;;;;;;5037408;28;45498;-71
2022/05/20 14:57:21;;;;;;;;;12.50;12.25;;;;;;;;5057048;27;45370;-68
2022/05/20 15:00:03;;;;;;;;;28.25;24.75;;;;;;;;5056692;27;45516;-68
2022/05/20 15:02:28;;;;;;;;;31.75;25.75;;;;;;;;5056678;28;45446;-68
2022/05/20 15:04:53;;;;;;;;;28.75;26.00;;;;;;;;5056605;28;45571;-68
2022/05/20 15:07:18;;;;;;;;;21.00;21.00;;;;;;;;5051514;28;46329;-68
2022/05/20 15:09:44;;;;;;;;;21.50;20.25;;;;;;;;5038624;28;45615;-66
2022/05/20 15:12:10;;;;;;;;;22.75;20.00;;;;;;;;5056590;28;45461;-68
2022/05/20 15:14:35;;;;;;;;;22.75;21.25;;;;;;;;5056158;28;45456;-70
2022/05/20 15:17:00;;;;;;;;;20.75;18.25;;;;;;;;5055671;28;46100;-67
2022/05/20 15:19:26;;;;;;;;;20.75;16.50;;;;;;;;5053750;28;45574;-68